aviador You're here:

LFBT Decoded Metar

TARBES in FRANCE
Report Time2017-09-25 02:30:00
UTC Time2017-09-25 02:41:18
Flight Rules mvfr MVFR
Wind260° at 10 kt
W.Decomp.*RWY 20: 5.0 kt HW 8.7 kt RCW
W.Rank260° ranks 2
Current wind is above 260° avg. (7.8)
Visibility9999 m
Phenomena:N/A
Clouds:Broken 010 Hf
Overcast 014 Hf
Expected CloudBase > 800 ft AGL from Temp-Dew spread
Ceiling1,000 ft
Temp17°C (ISA +4)
Dew Point15°C (88% RH)
AAT15.0°C
QNH1020 hPa
Density Alt1,699 ft
Elevation1,191 ft
Report Wrong Elevation
Raw Report
LFBT 250230Z AUTO 26010KT 240V300 9999 BKN010 OVC014 17/15 Q1020
NOSIG=

Extra information for LFBT:More info

Metar Taf Metar & Taf Last 4 Metars F.Rules Stats Wind Profile Meteogram Temp Stats Airport Information Weather charts Add Link Nearby VenuesMetar ALERT Operation Metar Decoded Social comments